Finley, Missouri
Current Conditions -  °F | °C
As of 4:52 PM on Tuesday 25 Nov 2014 (Local Time) from KSGF Reporting Station
Clear Clear  
Wind Chill: 38°   Ceiling: Unl
Heat Index: 41°   Visibility: 10mi
Dew Point: 16°   Wind: 5mph
Humidity: 36%   Direction: 270°W
Pressure: 30.12"   Gusts: NA
Location:  36.9964°N, 93.1892°W
Report Text: KSGF 252252Z 27004KT 10SM CLR 05/M09 A3012 RMK AO2 SLP210 T00501089
Loading
Personal Weather Stations






























Interactive Weather Map New forecast layout! Learn more

10-Day Weather Forecast

Advertisements
Track Severe Weather on mobile